createdAt,value
2022-11-29T00:01:12.975Z,69.14
2022-11-29T00:03:40.136Z,68.99
2022-11-29T00:06:09.997Z,68.59
2022-11-29T00:08:37.231Z,68.60
2022-11-29T00:11:09.322Z,69.02
2022-11-29T00:13:36.322Z,69.43
2022-11-29T00:16:08.911Z,69.32
2022-11-29T00:18:36.544Z,69.80
2022-11-29T00:21:08.243Z,69.33
2022-11-29T00:23:36.626Z,69.51
2022-11-29T00:26:05.783Z,70.32
2022-11-29T00:28:33.743Z,70.16
2022-11-29T00:31:01.063Z,70.46
2022-11-29T00:33:28.222Z,70.07
2022-11-29T00:35:55.162Z,69.58
2022-11-29T00:38:22.263Z,70.05
2022-11-29T00:40:52.916Z,69.94
2022-11-29T00:43:19.946Z,69.81
2022-11-29T00:45:46.982Z,69.67
2022-11-29T00:48:14.122Z,69.62
2022-11-29T00:50:41.156Z,69.85
2022-11-29T00:53:08.282Z,69.20
2022-11-29T00:55:35.243Z,69.53
2022-11-29T00:58:02.264Z,70.01
2022-11-29T01:00:29.282Z,70.12
2022-11-29T01:02:56.442Z,70.22
2022-11-29T01:05:23.524Z,70.34
2022-11-29T01:07:50.581Z,70.22
2022-11-29T01:10:17.764Z,70.55
2022-11-29T01:12:44.827Z,70.50
2022-11-29T01:15:12.044Z,69.79
2022-11-29T01:17:39.763Z,69.67
2022-11-29T01:20:08.970Z,70.01
2022-11-29T01:22:36.844Z,70.34
2022-11-29T01:25:04.964Z,70.46
2022-11-29T01:27:32.124Z,70.62
2022-11-29T01:29:59.083Z,70.92
2022-11-29T01:32:27.042Z,70.98
2022-11-29T01:34:53.964Z,70.10
2022-11-29T01:37:21.023Z,70.44
2022-11-29T01:39:47.984Z,70.40
2022-11-29T01:42:15.303Z,70.92
2022-11-29T01:44:45.432Z,70.08
2022-11-29T01:47:13.364Z,69.86
2022-11-29T01:49:47.143Z,69.81
2022-11-29T01:52:26.443Z,69.82
2022-11-29T01:54:58.583Z,69.84
2022-11-29T01:57:26.165Z,70.25
2022-11-29T01:59:58.403Z,70.34
2022-11-29T02:02:37.308Z,70.21
2022-11-29T02:05:05.603Z,70.93
2022-11-29T02:07:32.540Z,70.91
2022-11-29T02:09:59.843Z,70.32
2022-11-29T02:12:38.603Z,71.37
2022-11-29T02:15:31.161Z,71.08
2022-11-29T02:18:02.727Z,71.37
2022-11-29T02:20:54.683Z,71.29
2022-11-29T02:23:35.346Z,71.14
2022-11-29T02:26:37.844Z,71.32
2022-11-29T02:29:23.522Z,71.29
2022-11-29T02:31:59.443Z,71.43
2022-11-29T02:35:00.342Z,71.26
2022-11-29T02:37:49.324Z,71.69
2022-11-29T02:40:28.202Z,71.57
2022-11-29T02:43:07.442Z,71.48
2022-11-29T02:45:46.691Z,71.67
2022-11-29T02:48:33.642Z,70.87
2022-11-29T02:51:22.063Z,70.94
2022-11-29T02:53:56.790Z,71.29
2022-11-29T02:56:31.863Z,71.33
2022-11-29T02:59:20.142Z,71.60
2022-11-29T03:02:02.187Z,71.38
2022-11-29T03:04:41.207Z,70.95
2022-11-29T03:07:25.897Z,70.75
2022-11-29T03:10:22.202Z,71.47
2022-11-29T03:12:52.374Z,71.71
2022-11-29T03:15:31.585Z,71.68
2022-11-29T03:18:04.823Z,71.62
2022-11-29T03:21:04.694Z,71.80
2022-11-29T03:23:57.624Z,71.81
2022-11-29T03:26:35.804Z,71.48
2022-11-29T03:29:16.882Z,71.59
2022-11-29T03:31:55.929Z,71.76
2022-11-29T03:34:33.087Z,71.92
2022-11-29T03:37:18.662Z,72.16
2022-11-29T03:39:45.622Z,71.44
2022-11-29T03:42:25.483Z,71.45
2022-11-29T03:45:10.765Z,71.27
2022-11-29T03:47:51.823Z,71.38
2022-11-29T03:50:27.262Z,71.58
2022-11-29T03:53:00.322Z,71.37
2022-11-29T03:55:33.289Z,71.32
2022-11-29T03:58:22.673Z,71.09
2022-11-29T04:00:49.631Z,70.96
2022-11-29T04:03:40.706Z,71.14
2022-11-29T04:06:15.010Z,70.58
2022-11-29T04:09:12.502Z,71.04
2022-11-29T04:11:54.985Z,70.89
2022-11-29T04:14:33.843Z,70.55
2022-11-29T04:17:36.143Z,70.93
2022-11-29T04:20:45.321Z,70.92
2022-11-29T04:23:45.822Z,70.70
2022-11-29T04:26:34.970Z,70.51
2022-11-29T04:29:14.223Z,70.45
2022-11-29T04:32:20.022Z,70.09
2022-11-29T04:34:52.965Z,70.04
2022-11-29T04:37:50.326Z,69.92
2022-11-29T04:40:32.287Z,69.94
2022-11-29T04:43:43.663Z,69.92
2022-11-29T04:46:32.646Z,70.21
2022-11-29T04:48:59.882Z,69.96
2022-11-29T04:51:43.684Z,70.22
2022-11-29T04:54:34.050Z,70.43
2022-11-29T04:57:22.551Z,70.54
2022-11-29T05:00:06.725Z,70.38
2022-11-29T05:02:37.259Z,70.32
2022-11-29T05:05:12.243Z,71.09
2022-11-29T05:08:08.983Z,70.70
2022-11-29T05:10:59.623Z,70.92
2022-11-29T05:13:38.582Z,70.97
2022-11-29T05:16:24.624Z,72.01
2022-11-29T05:19:15.285Z,71.90
2022-11-29T05:21:54.852Z,71.28
2022-11-29T05:24:43.065Z,70.71
2022-11-29T05:27:28.679Z,71.40
2022-11-29T05:30:04.629Z,71.44
2022-11-29T05:32:38.731Z,71.64
2022-11-29T05:35:31.740Z,71.18
2022-11-29T05:38:33.856Z,71.39
2022-11-29T05:41:31.916Z,71.63
2022-11-29T05:44:11.559Z,71.12
2022-11-29T05:46:56.119Z,71.04
2022-11-29T05:49:47.538Z,71.23
2022-11-29T05:52:49.720Z,70.74
2022-11-29T05:55:29.597Z,70.39
2022-11-29T05:58:04.723Z,70.82
2022-11-29T06:01:19.367Z,71.16
2022-11-29T06:04:25.155Z,71.16
2022-11-29T06:07:09.896Z,71.41
2022-11-29T06:09:44.198Z,71.37
2022-11-29T06:12:21.164Z,71.36
2022-11-29T06:15:14.127Z,71.09
2022-11-29T06:17:59.256Z,70.80
2022-11-29T06:20:35.119Z,70.94
2022-11-29T06:23:28.787Z,70.92
2022-11-29T06:26:17.417Z,70.84
2022-11-29T06:29:02.777Z,70.25
2022-11-29T06:32:03.105Z,70.33
2022-11-29T06:34:59.484Z,70.54
2022-11-29T06:37:38.067Z,70.56
2022-11-29T06:40:09.288Z,70.46
2022-11-29T06:42:36.239Z,70.61
2022-11-29T06:45:04.877Z,70.28
2022-11-29T06:47:53.370Z,70.42
2022-11-29T06:50:39.255Z,69.93
2022-11-29T06:53:21.077Z,70.43
2022-11-29T06:56:26.748Z,70.43
2022-11-29T06:59:50.455Z,70.48
2022-11-29T07:02:57.398Z,70.34
2022-11-29T07:05:33.278Z,70.20
2022-11-29T07:08:12.118Z,70.54
2022-11-29T07:10:41.049Z,70.18
2022-11-29T07:13:08.250Z,70.20
2022-11-29T07:15:37.545Z,70.34
2022-11-29T07:18:29.058Z,70.01
2022-11-29T07:21:08.018Z,70.31
2022-11-29T07:23:59.668Z,69.75
2022-11-29T07:26:32.196Z,69.82
2022-11-29T07:29:03.820Z,69.87
2022-11-29T07:31:43.903Z,69.18
2022-11-29T07:34:25.687Z,69.43
2022-11-29T07:37:01.667Z,69.00
2022-11-29T07:39:50.406Z,69.01
2022-11-29T07:42:21.776Z,68.49
2022-11-29T07:45:23.548Z,68.22
2022-11-29T07:47:50.677Z,68.03
2022-11-29T07:50:17.657Z,67.99
2022-11-29T07:52:44.748Z,67.86
2022-11-29T07:55:18.993Z,68.14
2022-11-29T07:57:47.405Z,67.87
2022-11-29T08:00:15.147Z,68.24
2022-11-29T08:02:42.955Z,67.81
2022-11-29T08:05:10.897Z,68.08
2022-11-29T08:07:39.712Z,67.84
2022-11-29T08:10:09.928Z,67.83
2022-11-29T08:12:37.308Z,67.54
2022-11-29T08:15:04.587Z,67.43
2022-11-29T08:17:31.819Z,68.07
2022-11-29T08:20:02.666Z,67.58
2022-11-29T08:22:31.231Z,67.75
2022-11-29T08:24:58.708Z,67.72
2022-11-29T08:27:26.108Z,67.58
2022-11-29T08:29:53.087Z,67.42
2022-11-29T08:32:20.068Z,67.71
2022-11-29T08:34:47.177Z,67.44
2022-11-29T08:37:14.388Z,67.79
2022-11-29T08:39:41.527Z,67.35
2022-11-29T08:42:08.547Z,67.63
2022-11-29T08:44:35.446Z,67.70
2022-11-29T08:47:21.328Z,67.91
2022-11-29T08:50:03.350Z,67.74
2022-11-29T08:52:55.036Z,67.54
2022-11-29T08:55:24.987Z,67.60
2022-11-29T08:57:53.127Z,67.86
2022-11-29T09:00:21.560Z,67.99
2022-11-29T09:02:49.232Z,67.92
2022-11-29T09:05:16.366Z,68.05
2022-11-29T09:07:43.617Z,68.04
2022-11-29T09:10:11.491Z,67.87
2022-11-29T09:12:41.577Z,67.84
2022-11-29T09:15:11.094Z,67.76
2022-11-29T09:17:37.989Z,67.35
2022-11-29T09:20:06.166Z,67.27
2022-11-29T09:22:33.118Z,67.13
2022-11-29T09:25:00.114Z,66.86
2022-11-29T09:27:27.052Z,66.74
2022-11-29T09:29:54.008Z,66.81
2022-11-29T09:32:20.948Z,66.75
2022-11-29T09:34:48.480Z,66.65
2022-11-29T09:37:15.551Z,66.62
2022-11-29T09:39:42.511Z,66.69
2022-11-29T09:42:25.008Z,66.49
2022-11-29T09:45:09.699Z,66.63
2022-11-29T09:47:42.367Z,66.65
2022-11-29T09:50:12.099Z,66.19
2022-11-29T09:52:48.148Z,66.42
2022-11-29T09:55:33.348Z,66.06
2022-11-29T09:58:04.037Z,66.21
2022-11-29T10:00:35.597Z,66.21
2022-11-29T10:03:17.227Z,66.05
2022-11-29T10:05:50.117Z,65.95
2022-11-29T10:08:42.198Z,65.80
2022-11-29T10:11:22.367Z,66.15
2022-11-29T10:13:54.000Z,66.20
2022-11-29T10:16:28.855Z,66.31
2022-11-29T10:19:04.858Z,66.40
2022-11-29T10:21:38.858Z,65.98
2022-11-29T10:24:14.947Z,66.00
2022-11-29T10:26:43.672Z,65.87
2022-11-29T10:29:15.808Z,65.95
2022-11-29T10:31:49.725Z,66.29
2022-11-29T10:34:20.347Z,66.00
2022-11-29T10:37:04.564Z,65.98
2022-11-29T10:39:39.967Z,65.95
2022-11-29T10:42:35.287Z,65.93
2022-11-29T10:45:03.326Z,65.62
2022-11-29T10:47:31.066Z,65.60
2022-11-29T10:49:59.277Z,65.47
2022-11-29T10:52:26.206Z,65.02
2022-11-29T10:54:56.987Z,64.88
2022-11-29T10:57:24.209Z,64.34
2022-11-29T11:00:02.382Z,64.49
2022-11-29T11:02:30.237Z,64.23
2022-11-29T11:04:58.867Z,63.90
2022-11-29T11:07:35.888Z,64.09
2022-11-29T11:10:26.148Z,63.77
2022-11-29T11:13:04.743Z,64.01
2022-11-29T11:15:32.695Z,63.88
2022-11-29T11:18:03.982Z,63.97
2022-11-29T11:20:36.926Z,63.90
2022-11-29T11:23:07.209Z,63.82
2022-11-29T11:25:37.783Z,63.88
2022-11-29T11:28:29.636Z,63.99
2022-11-29T11:31:03.420Z,64.21
2022-11-29T11:33:34.264Z,64.36
2022-11-29T11:36:09.507Z,64.83
2022-11-29T11:38:49.276Z,64.95
2022-11-29T11:41:46.767Z,65.04
2022-11-29T11:44:58.611Z,65.08
2022-11-29T11:47:27.558Z,65.18
2022-11-29T11:50:00.607Z,65.17
2022-11-29T11:52:39.595Z,65.46
2022-11-29T11:55:36.567Z,65.53
2022-11-29T11:58:12.760Z,65.87
2022-11-29T12:13:28.996Z,67.56
2022-11-29T12:15:57.207Z,68.48
2022-11-29T12:18:23.972Z,68.95
2022-11-29T12:21:03.749Z,69.13
2022-11-29T12:23:30.676Z,69.08
2022-11-29T12:29:22.507Z,68.33
2022-11-29T12:32:30.637Z,68.20
2022-11-29T12:35:18.853Z,67.95
2022-11-29T12:38:04.230Z,68.02
2022-11-29T12:40:38.486Z,67.54
2022-11-29T12:43:14.166Z,67.31
2022-11-29T12:46:03.858Z,66.95
2022-11-29T12:48:36.910Z,66.94
2022-11-29T12:51:21.618Z,66.32
2022-11-29T12:54:04.948Z,66.23
2022-11-29T12:56:41.988Z,66.13
2022-11-29T12:59:12.039Z,65.99
2022-11-29T13:02:10.936Z,66.22
2022-11-29T13:05:06.192Z,65.91
2022-11-29T13:07:50.266Z,65.67
2022-11-29T13:10:23.286Z,65.28
2022-11-29T13:12:57.197Z,64.78
2022-11-29T13:15:33.128Z,64.86
2022-11-29T13:18:12.588Z,63.76
2022-11-29T13:20:48.883Z,63.93
2022-11-29T13:24:07.387Z,63.55
2022-11-29T13:26:29.548Z,63.80
2022-11-29T13:28:57.868Z,63.58
2022-11-29T13:31:25.711Z,63.34
2022-11-29T13:34:27.988Z,63.63
2022-11-29T13:36:54.909Z,63.54
2022-11-29T13:39:33.159Z,63.60
2022-11-29T13:42:19.106Z,63.10
2022-11-29T13:45:16.887Z,63.25
2022-11-29T13:47:59.785Z,63.24
2022-11-29T13:50:45.468Z,63.12
2022-11-29T13:53:48.477Z,62.96
2022-11-29T13:56:29.948Z,62.75
2022-11-29T13:58:59.037Z,62.61
2022-11-29T14:01:26.935Z,62.74
2022-11-29T14:04:24.920Z,63.07
2022-11-29T14:07:22.386Z,62.92
2022-11-29T14:10:06.325Z,62.50
2022-11-29T14:12:41.887Z,62.77
2022-11-29T14:15:11.708Z,62.81
2022-11-29T14:18:08.367Z,62.67
2022-11-29T14:20:44.213Z,62.31
2022-11-29T14:23:16.810Z,62.36
2022-11-29T14:25:58.994Z,62.36
2022-11-29T14:28:32.955Z,62.59
2022-11-29T14:31:05.089Z,62.65
2022-11-29T14:33:41.048Z,62.95
2022-11-29T14:36:23.191Z,63.26
2022-11-29T14:39:04.626Z,63.01
2022-11-29T14:41:37.366Z,63.03
2022-11-29T14:44:26.270Z,63.23
2022-11-29T14:47:13.886Z,63.37
2022-11-29T14:49:44.227Z,63.48
2022-11-29T14:52:13.986Z,63.76
2022-11-29T14:55:00.788Z,63.54
2022-11-29T14:57:52.390Z,63.37
2022-11-29T15:00:23.248Z,62.98
2022-11-29T15:03:00.708Z,63.50
2022-11-29T15:05:35.368Z,63.13
2022-11-29T15:08:26.770Z,63.68
2022-11-29T15:11:50.506Z,63.90
2022-11-29T15:14:33.928Z,64.08
2022-11-29T15:17:18.827Z,64.16
2022-11-29T15:20:11.458Z,63.97
2022-11-29T15:22:54.747Z,63.89
2022-11-29T15:25:25.007Z,64.25
2022-11-29T15:27:56.167Z,64.32
2022-11-29T15:30:35.805Z,63.86
2022-11-29T15:33:06.468Z,63.91
2022-11-29T15:35:35.460Z,63.83
2022-11-29T15:38:02.686Z,64.15
2022-11-29T15:40:35.458Z,63.98
2022-11-29T15:43:15.540Z,64.28
2022-11-29T15:45:48.604Z,63.82
2022-11-29T15:48:27.193Z,63.75
2022-11-29T15:51:03.000Z,64.15
2022-11-29T15:53:45.219Z,63.91
2022-11-29T15:56:18.479Z,64.29
2022-11-29T15:58:47.976Z,64.06
2022-11-29T16:01:21.456Z,64.10
2022-11-29T16:03:53.491Z,64.26
2022-11-29T16:06:42.540Z,64.38
2022-11-29T16:09:20.229Z,64.40
2022-11-29T16:11:48.806Z,64.35
2022-11-29T16:14:24.436Z,64.56
2022-11-29T16:16:54.627Z,64.69
2022-11-29T16:19:36.406Z,65.06
2022-11-29T16:22:11.728Z,65.18
2022-11-29T16:24:42.000Z,64.93
2022-11-29T16:27:09.128Z,65.12
2022-11-29T16:29:45.327Z,65.24
2022-11-29T16:32:32.648Z,65.27
2022-11-29T16:35:17.167Z,65.07
2022-11-29T16:37:45.633Z,64.93
2022-11-29T16:40:25.877Z,64.81
2022-11-29T16:43:05.096Z,64.42
2022-11-29T16:45:41.614Z,64.33
2022-11-29T16:48:30.076Z,64.30
2022-11-29T16:51:15.388Z,64.38
2022-11-29T16:53:47.957Z,64.25
2022-11-29T16:56:17.553Z,64.28
2022-11-29T16:59:20.780Z,63.98
2022-11-29T17:01:54.317Z,64.04
2022-11-29T17:04:23.376Z,64.06
2022-11-29T17:06:56.737Z,64.33
2022-11-29T17:09:29.898Z,64.22
2022-11-29T17:12:00.040Z,63.91
2022-11-29T17:14:28.059Z,64.30
2022-11-29T17:16:55.454Z,64.23
2022-11-29T17:19:24.028Z,64.32
2022-11-29T17:21:52.824Z,64.24
2022-11-29T17:24:21.722Z,64.28
2022-11-29T17:26:49.638Z,64.16
2022-11-29T17:29:17.957Z,64.19
2022-11-29T17:31:46.644Z,64.65
2022-11-29T17:34:13.858Z,64.98
2022-11-29T17:36:40.937Z,64.68
2022-11-29T17:39:08.724Z,64.43
2022-11-29T17:41:36.099Z,64.53
2022-11-29T17:44:03.730Z,64.62
2022-11-29T17:46:35.420Z,64.49
2022-11-29T17:49:05.078Z,64.68
2022-11-29T17:54:19.501Z,65.12
2022-11-29T17:56:46.808Z,64.92
2022-11-29T17:59:13.811Z,65.32
2022-11-29T18:01:40.886Z,65.51
2022-11-29T18:04:08.598Z,65.32
2022-11-29T18:06:39.456Z,65.62
2022-11-29T18:09:08.679Z,65.63
2022-11-29T18:11:47.127Z,65.71
2022-11-29T18:14:18.520Z,66.28
2022-11-29T18:16:45.831Z,65.86
2022-11-29T18:19:15.871Z,66.03
2022-11-29T18:21:43.454Z,66.11
2022-11-29T18:24:11.087Z,66.16
2022-11-29T18:26:38.296Z,66.72
2022-11-29T18:29:06.364Z,66.73
2022-11-29T18:31:36.271Z,66.49
2022-11-29T18:34:13.276Z,66.52
2022-11-29T18:36:43.343Z,66.04
2022-11-29T18:39:16.249Z,66.22
2022-11-29T18:41:46.267Z,66.08
2022-11-29T18:44:15.097Z,66.07
2022-11-29T18:46:44.177Z,65.94
2022-11-29T18:49:13.570Z,65.77
2022-11-29T18:51:43.065Z,66.13
2022-11-29T18:54:10.627Z,66.25
2022-11-29T18:56:38.688Z,66.06
2022-11-29T18:59:11.409Z,65.91
2022-11-29T19:01:43.675Z,66.33
2022-11-29T19:04:16.580Z,66.52
2022-11-29T19:06:43.917Z,66.83
2022-11-29T19:09:16.886Z,66.64
2022-11-29T19:11:43.983Z,66.58
2022-11-29T19:14:12.956Z,66.94
2022-11-29T19:16:45.430Z,66.87
2022-11-29T19:19:12.739Z,67.07
2022-11-29T19:21:40.290Z,67.10
2022-11-29T19:24:14.319Z,67.14
2022-11-29T19:26:44.757Z,67.47
2022-11-29T19:29:13.417Z,67.54
2022-11-29T19:31:40.980Z,67.62
2022-11-29T19:34:08.370Z,67.44
2022-11-29T19:36:43.631Z,67.21
2022-11-29T19:39:13.672Z,67.37
2022-11-29T19:41:43.029Z,67.39
2022-11-29T19:44:10.918Z,67.72
2022-11-29T19:46:41.043Z,67.66
2022-11-29T19:49:09.520Z,67.53
2022-11-29T19:51:37.141Z,67.67
2022-11-29T19:54:08.127Z,67.32
2022-11-29T19:56:35.438Z,67.36
2022-11-29T19:59:02.918Z,67.36
2022-11-29T20:01:39.301Z,66.99
2022-11-29T20:04:10.848Z,67.09
2022-11-29T20:06:40.612Z,67.40
2022-11-29T20:09:08.166Z,67.48
2022-11-29T20:11:35.823Z,67.41
2022-11-29T20:14:06.536Z,67.37
2022-11-29T20:16:35.123Z,67.43
2022-11-29T20:19:02.167Z,67.43
2022-11-29T20:21:33.957Z,67.50
2022-11-29T20:24:07.395Z,67.07
2022-11-29T20:26:38.441Z,67.41
2022-11-29T20:29:07.302Z,67.17
2022-11-29T20:31:35.831Z,67.05
2022-11-29T20:34:06.810Z,66.65
2022-11-29T20:37:08.110Z,66.84
2022-11-29T20:39:57.349Z,66.92
2022-11-29T20:42:27.258Z,66.96
2022-11-29T20:44:58.478Z,66.63
2022-11-29T20:47:28.433Z,66.72
2022-11-29T20:49:55.585Z,66.71
2022-11-29T20:52:45.399Z,66.76
2022-11-29T20:55:12.550Z,66.66
2022-11-29T20:57:39.568Z,66.49
2022-11-29T21:00:09.128Z,66.38
2022-11-29T21:02:36.086Z,66.50
2022-11-29T21:05:04.060Z,66.70
2022-11-29T21:07:31.174Z,66.37
2022-11-29T21:10:01.373Z,66.76
2022-11-29T21:12:29.929Z,66.53
2022-11-29T21:14:57.669Z,66.55
2022-11-29T21:17:31.723Z,66.69
2022-11-29T21:20:01.041Z,66.85
2022-11-29T21:22:44.273Z,66.96
2022-11-29T21:25:20.061Z,66.97
2022-11-29T21:27:47.707Z,66.88
2022-11-29T21:30:20.594Z,67.02
2022-11-29T21:32:48.137Z,67.04
2022-11-29T21:35:16.079Z,67.05
2022-11-29T21:37:44.188Z,66.67
2022-11-29T21:40:12.301Z,66.49
2022-11-29T21:42:39.237Z,66.65
2022-11-29T21:45:14.598Z,66.78
2022-11-29T21:47:42.367Z,66.83
2022-11-29T21:50:09.770Z,66.54
2022-11-29T21:52:36.798Z,66.45
2022-11-29T21:55:04.127Z,66.63
2022-11-29T21:57:31.152Z,66.59
2022-11-29T21:59:58.088Z,66.20
2022-11-29T22:02:25.081Z,66.39
2022-11-29T22:04:52.137Z,66.18
2022-11-29T22:07:19.351Z,65.93
2022-11-29T22:09:46.356Z,65.83
2022-11-29T22:12:33.306Z,65.98
2022-11-29T22:15:00.406Z,65.75
2022-11-29T22:17:27.417Z,65.93
2022-11-29T22:19:54.774Z,66.37
2022-11-29T22:22:21.689Z,65.94
2022-11-29T22:24:48.838Z,65.85
2022-11-29T22:27:18.574Z,65.91
2022-11-29T22:29:45.678Z,66.14
2022-11-29T22:32:13.731Z,65.85
2022-11-29T22:34:40.891Z,65.84
2022-11-29T22:37:07.808Z,66.25
2022-11-29T22:39:34.949Z,66.02
2022-11-29T22:42:01.961Z,66.18
2022-11-29T22:44:28.889Z,66.10
2022-11-29T22:46:56.265Z,65.68
2022-11-29T22:49:23.374Z,65.70
2022-11-29T22:51:50.399Z,65.48
2022-11-29T22:54:18.153Z,65.27
2022-11-29T22:56:46.051Z,65.69
2022-11-29T22:59:13.590Z,65.51
2022-11-29T23:01:41.696Z,65.51
2022-11-29T23:04:09.832Z,65.81
2022-11-29T23:06:42.131Z,65.84
2022-11-29T23:09:20.077Z,65.60
2022-11-29T23:11:52.168Z,65.65
2022-11-29T23:14:20.468Z,65.84
2022-11-29T23:16:47.254Z,65.52
2022-11-29T23:19:16.330Z,65.50
2022-11-29T23:21:45.986Z,65.34
2022-11-29T23:24:14.197Z,65.23
2022-11-29T23:26:44.819Z,65.47
2022-11-29T23:29:19.310Z,65.34
2022-11-29T23:31:48.335Z,64.97
2022-11-29T23:34:15.610Z,64.86
2022-11-29T23:36:44.003Z,65.25
2022-11-29T23:39:13.970Z,64.75
2022-11-29T23:41:40.928Z,64.78
2022-11-29T23:44:09.536Z,64.86
2022-11-29T23:46:36.526Z,64.78
2022-11-29T23:49:03.631Z,64.72
2022-11-29T23:51:30.579Z,64.61
2022-11-29T23:53:57.560Z,65.03
2022-11-29T23:56:24.515Z,64.73
2022-11-29T23:58:51.599Z,64.77
